KRZR

Cleveland Regional Jetport Airport

Cleveland, Tennessee, USA
METAR KRZR 191655Z AUTO VRB04KT 10SM FEW030 FEW045 SCT055 29/22 A2998 RMK A01
Observed Flight Rules
Aug-19 @ 16:55 UTC (17 minutes ago) Visual Flight Rules
Wind Visibility Clouds
Variable at 4 knots 10 miles
  • Few at 3,000' AGL
  • Few at 4,500' AGL
  • Scattered at 5,500' AGL
Temperatures Readings
Current 29°C / 84°F
Dewpoint 22°C / 72°F
Humidity 66%
Altimeter 29.98" Hg
Pressure 1015 hPa
Elevation 263
METAR KRZR 191655Z AUTO VRB04KT 10SM FEW030 FEW045 SCT055 29/22 A2998 RMK A01
Observed Flight Rules
Aug-19 @ 16:55 UTC
(17 minutes ago)
VFR
Wind Visibility
Variable at 4 knots 10 miles
Clouds
  • Few at 3,000' AGL
  • Few at 4,500' AGL
  • Scattered at 5,500' AGL
Temperature Dewpoint
29°C / 84°F 22°C / 72°F
Humidity Altimeter Pressure
66% 29.98" Hg 1015 hPa